createdAt,value
2023-05-06T00:00:00.710Z,91.77
2023-05-06T00:02:29.379Z,91.82
2023-05-06T00:04:55.956Z,92.01
2023-05-06T00:07:22.543Z,92.05
2023-05-06T00:09:51.309Z,92.04
2023-05-06T00:12:27.019Z,92.52
2023-05-06T00:14:53.539Z,92.72
2023-05-06T00:17:20.105Z,92.71
2023-05-06T00:19:49.525Z,92.78
2023-05-06T00:22:15.923Z,92.70
2023-05-06T00:24:43.689Z,92.86
2023-05-06T00:27:10.206Z,92.82
2023-05-06T00:29:36.939Z,92.68
2023-05-06T00:32:03.798Z,92.96
2023-05-06T00:34:32.990Z,92.98
2023-05-06T00:36:59.501Z,93.01
2023-05-06T00:39:26.692Z,93.29
2023-05-06T00:41:53.148Z,92.83
2023-05-06T00:44:19.678Z,93.01
2023-05-06T00:46:48.960Z,93.03
2023-05-06T00:49:15.399Z,93.11
2023-05-06T00:51:41.806Z,93.33
2023-05-06T00:54:08.316Z,93.34
2023-05-06T00:56:41.863Z,93.07
2023-05-06T00:59:08.283Z,93.34
2023-05-06T01:01:34.839Z,93.37
2023-05-06T01:04:01.645Z,93.37
2023-05-06T01:06:43.495Z,93.47
2023-05-06T01:09:31.869Z,93.35
2023-05-06T01:12:17.048Z,93.78
2023-05-06T01:15:08.785Z,93.90
2023-05-06T01:17:46.344Z,93.61
2023-05-06T01:20:13.355Z,93.74
2023-05-06T01:22:39.966Z,93.78
2023-05-06T01:25:06.881Z,94.01
2023-05-06T01:27:33.488Z,93.93
2023-05-06T01:30:00.744Z,94.12
2023-05-06T01:32:33.287Z,93.93
2023-05-06T01:35:17.021Z,93.70
2023-05-06T01:38:15.866Z,93.89
2023-05-06T01:40:44.264Z,93.90
2023-05-06T01:43:12.466Z,93.82
2023-05-06T01:45:40.588Z,94.02
2023-05-06T01:48:07.509Z,94.08
2023-05-06T01:50:35.339Z,93.91
2023-05-06T01:53:03.327Z,93.96
2023-05-06T01:55:29.960Z,93.92
2023-05-06T01:57:56.799Z,94.16
2023-05-06T02:00:25.032Z,94.09
2023-05-06T02:02:51.800Z,94.28
2023-05-06T02:05:18.581Z,94.28
2023-05-06T02:07:45.029Z,94.28
2023-05-06T02:10:11.568Z,94.39
2023-05-06T02:12:38.043Z,94.54
2023-05-06T02:15:04.941Z,94.84
2023-05-06T02:17:31.379Z,94.87
2023-05-06T02:19:57.843Z,94.99
2023-05-06T02:22:24.312Z,95.12
2023-05-06T02:24:58.057Z,94.85
2023-05-06T02:27:24.474Z,94.68
2023-05-06T02:29:53.376Z,95.01
2023-05-06T02:32:19.882Z,94.93
2023-05-06T02:34:53.196Z,95.00
2023-05-06T02:37:19.578Z,94.80
2023-05-06T02:39:46.003Z,94.67
2023-05-06T02:42:16.086Z,94.71
2023-05-06T02:44:42.750Z,94.51
2023-05-06T02:47:09.395Z,94.43
2023-05-06T02:49:38.545Z,94.34
2023-05-06T02:52:05.095Z,94.69
2023-05-06T02:54:31.433Z,94.76
2023-05-06T02:56:57.874Z,94.83
2023-05-06T02:59:24.339Z,94.67
2023-05-06T03:01:53.798Z,94.78
2023-05-06T03:04:21.217Z,94.77
2023-05-06T03:06:47.778Z,95.07
2023-05-06T03:09:15.517Z,94.66
2023-05-06T03:11:41.917Z,95.15
2023-05-06T03:14:08.353Z,94.80
2023-05-06T03:16:34.824Z,94.64
2023-05-06T03:19:03.616Z,95.05
2023-05-06T03:21:30.587Z,95.06
2023-05-06T03:23:57.925Z,95.11
2023-05-06T03:26:24.416Z,95.05
2023-05-06T03:28:50.931Z,95.20
2023-05-06T03:31:17.362Z,94.92
2023-05-06T03:33:43.842Z,94.91
2023-05-06T03:36:10.222Z,94.90
2023-05-06T03:38:36.922Z,95.13
2023-05-06T03:41:06.059Z,94.81
2023-05-06T03:43:32.852Z,94.88
2023-05-06T03:45:59.569Z,94.94
2023-05-06T03:48:25.990Z,94.94
2023-05-06T03:50:55.377Z,94.55
2023-05-06T03:53:21.812Z,95.04
2023-05-06T03:55:48.264Z,95.02
2023-05-06T03:58:14.627Z,94.96
2023-05-06T04:00:41.452Z,94.90
2023-05-06T04:03:07.945Z,94.96
2023-05-06T04:05:34.453Z,95.09
2023-05-06T04:08:00.859Z,95.10
2023-05-06T04:10:30.004Z,95.26
2023-05-06T04:12:56.448Z,95.24
2023-05-06T04:15:23.308Z,95.60
2023-05-06T04:17:49.694Z,95.70
2023-05-06T04:20:16.335Z,95.74
2023-05-06T04:22:42.901Z,95.74
2023-05-06T04:25:09.848Z,95.85
2023-05-06T04:27:36.542Z,95.93
2023-05-06T04:30:03.213Z,95.78
2023-05-06T04:32:34.112Z,95.73
2023-05-06T04:35:00.639Z,95.63
2023-05-06T04:37:28.276Z,95.47
2023-05-06T04:39:55.790Z,95.36
2023-05-06T04:42:22.207Z,95.35
2023-05-06T04:44:49.156Z,95.58
2023-05-06T04:47:16.381Z,95.41
2023-05-06T04:49:45.211Z,95.32
2023-05-06T04:52:11.652Z,95.45
2023-05-06T04:54:38.055Z,94.96
2023-05-06T04:57:04.577Z,95.26
2023-05-06T04:59:31.002Z,95.32
2023-05-06T05:01:57.390Z,95.46
2023-05-06T05:04:23.761Z,95.34
2023-05-06T05:06:50.221Z,95.22
2023-05-06T05:09:21.841Z,95.57
2023-05-06T05:11:48.256Z,95.74
2023-05-06T05:14:17.177Z,96.09
2023-05-06T05:16:43.680Z,95.80
2023-05-06T05:19:10.136Z,95.85
2023-05-06T05:21:38.519Z,95.87
2023-05-06T05:24:05.162Z,95.94
2023-05-06T05:26:31.705Z,95.98
2023-05-06T05:28:59.302Z,96.16
2023-05-06T05:31:25.927Z,95.72
2023-05-06T05:33:52.717Z,95.69
2023-05-06T05:36:23.109Z,95.71
2023-05-06T05:38:50.283Z,95.57
2023-05-06T05:41:17.543Z,95.49
2023-05-06T05:43:44.209Z,95.28
2023-05-06T05:46:10.792Z,95.27
2023-05-06T05:48:39.723Z,94.76
2023-05-06T05:51:06.253Z,94.53
2023-05-06T05:53:32.794Z,94.55
2023-05-06T05:55:59.235Z,94.57
2023-05-06T05:58:25.697Z,94.53
2023-05-06T06:00:57.095Z,94.44
2023-05-06T06:03:23.697Z,94.52
2023-05-06T06:05:52.781Z,94.52
2023-05-06T06:08:19.276Z,94.66
2023-05-06T06:10:46.326Z,94.55
2023-05-06T06:13:13.451Z,94.62
2023-05-06T06:15:40.379Z,94.44
2023-05-06T06:18:08.731Z,94.25
2023-05-06T06:20:35.842Z,93.79
2023-05-06T06:23:02.475Z,93.89
2023-05-06T06:25:29.009Z,93.85
2023-05-06T06:27:56.527Z,93.45
2023-05-06T06:30:23.132Z,93.64
2023-05-06T06:32:53.674Z,93.56
2023-05-06T06:35:20.644Z,93.60
2023-05-06T06:37:47.376Z,93.43
2023-05-06T06:40:14.196Z,92.66
2023-05-06T06:42:40.715Z,92.37
2023-05-06T06:45:09.209Z,91.75
2023-05-06T06:47:36.121Z,91.32
2023-05-06T06:50:03.958Z,90.87
2023-05-06T06:52:30.507Z,90.41
2023-05-06T06:54:56.855Z,89.79
2023-05-06T06:57:23.245Z,88.86
2023-05-06T06:59:52.415Z,87.65
2023-05-06T07:02:22.006Z,86.69
2023-05-06T07:04:51.155Z,85.72
2023-05-06T07:07:17.644Z,84.40
2023-05-06T07:09:44.430Z,83.34
2023-05-06T07:12:11.433Z,82.53
2023-05-06T07:14:37.971Z,82.12
2023-05-06T07:17:04.579Z,81.44
2023-05-06T07:19:33.655Z,80.73
2023-05-06T07:22:00.949Z,80.62
2023-05-06T07:24:27.401Z,80.76
2023-05-06T07:26:53.890Z,80.80
2023-05-06T07:29:20.604Z,80.72
2023-05-06T07:31:47.008Z,80.43
2023-05-06T07:34:13.549Z,79.67
2023-05-06T07:36:43.398Z,78.97
2023-05-06T07:39:12.488Z,77.56
2023-05-06T07:41:38.973Z,77.17
2023-05-06T07:44:06.700Z,77.01
2023-05-06T07:46:33.688Z,76.21
2023-05-06T07:49:00.286Z,75.31
2023-05-06T07:51:27.029Z,75.59
2023-05-06T07:54:02.595Z,75.54
2023-05-06T07:56:29.146Z,74.77
2023-05-06T07:58:56.120Z,74.58
2023-05-06T08:01:22.558Z,73.67
2023-05-06T08:03:49.108Z,73.83
2023-05-06T08:06:15.617Z,73.66
2023-05-06T08:08:42.443Z,73.24
2023-05-06T08:11:08.910Z,73.81
2023-05-06T08:13:35.281Z,73.99
2023-05-06T08:16:02.915Z,73.29
2023-05-06T08:18:30.003Z,73.60
2023-05-06T08:20:56.511Z,73.88
2023-05-06T08:23:23.146Z,73.64
2023-05-06T08:25:49.759Z,72.54
2023-05-06T08:28:17.821Z,73.06
2023-05-06T08:30:47.641Z,71.48
2023-05-06T08:33:14.461Z,69.24
2023-05-06T08:35:40.992Z,67.00
2023-05-06T08:38:07.422Z,65.38
2023-05-06T08:40:34.814Z,64.12
2023-05-06T08:43:03.339Z,63.69
2023-05-06T08:45:30.254Z,64.69
2023-05-06T08:47:56.878Z,63.69
2023-05-06T08:50:24.677Z,63.26
2023-05-06T08:52:51.836Z,62.63
2023-05-06T08:55:19.247Z,62.50
2023-05-06T08:57:49.369Z,61.08
2023-05-06T09:00:16.095Z,60.86
2023-05-06T09:02:43.444Z,59.26
2023-05-06T09:05:11.428Z,58.94
2023-05-06T09:07:40.208Z,57.71
2023-05-06T09:10:14.362Z,57.35
2023-05-06T09:12:41.584Z,55.87
2023-05-06T09:15:09.664Z,55.01
2023-05-06T09:17:36.633Z,55.72
2023-05-06T09:20:03.772Z,54.55
2023-05-06T09:22:31.190Z,55.06
2023-05-06T09:24:58.476Z,54.81
2023-05-06T09:27:29.785Z,54.21
2023-05-06T09:30:05.477Z,52.57
2023-05-06T09:32:32.744Z,52.58
2023-05-06T09:35:00.338Z,51.81
2023-05-06T09:37:27.238Z,49.67
2023-05-06T09:39:55.798Z,50.21
2023-05-06T09:42:26.797Z,49.28
2023-05-06T09:44:55.018Z,49.70
2023-05-06T09:47:23.035Z,48.68
2023-05-06T09:49:49.579Z,47.84
2023-05-06T09:52:16.399Z,47.35
2023-05-06T09:54:43.294Z,45.34
2023-05-06T09:57:10.467Z,44.82
2023-05-06T09:59:38.012Z,44.42
2023-05-06T10:02:05.868Z,45.48
2023-05-06T10:04:37.396Z,44.89
2023-05-06T10:07:05.050Z,43.93
2023-05-06T10:09:33.034Z,43.32
2023-05-06T10:12:00.829Z,43.21
2023-05-06T10:14:27.353Z,42.35
2023-05-06T10:16:54.924Z,43.02
2023-05-06T10:19:25.782Z,42.58
2023-05-06T10:22:04.441Z,42.61
2023-05-06T10:24:37.975Z,43.24
2023-05-06T10:27:06.339Z,44.11
2023-05-06T10:29:37.741Z,43.28
2023-05-06T10:32:05.195Z,42.68
2023-05-06T10:34:38.292Z,42.54
2023-05-06T10:37:06.313Z,42.53
2023-05-06T10:39:33.008Z,42.03
2023-05-06T10:41:59.791Z,42.53
2023-05-06T10:45:03.080Z,42.66
2023-05-06T10:47:58.485Z,43.96
2023-05-06T10:50:27.659Z,43.76
2023-05-06T10:52:56.496Z,43.58
2023-05-06T10:55:34.480Z,43.23
2023-05-06T10:58:11.974Z,42.25
2023-05-06T11:00:38.550Z,42.69
2023-05-06T11:03:11.168Z,41.70
2023-05-06T11:05:48.968Z,42.03
2023-05-06T11:08:21.404Z,42.65
2023-05-06T11:10:47.933Z,42.88
2023-05-06T11:13:28.890Z,42.53
2023-05-06T11:15:57.470Z,43.01
2023-05-06T11:18:38.066Z,43.23
2023-05-06T11:21:30.408Z,41.58
2023-05-06T11:23:59.556Z,41.77
2023-05-06T11:26:27.307Z,41.94
2023-05-06T11:28:55.861Z,41.55
2023-05-06T11:31:22.809Z,40.68
2023-05-06T11:33:53.130Z,40.12
2023-05-06T11:36:21.398Z,38.71
2023-05-06T11:38:56.468Z,39.29
2023-05-06T11:41:23.324Z,39.47
2023-05-06T11:43:51.896Z,38.58
2023-05-06T11:46:19.404Z,37.95
2023-05-06T11:48:46.571Z,38.34
2023-05-06T11:51:13.744Z,37.54
2023-05-06T11:53:40.147Z,37.14
2023-05-06T11:56:07.788Z,36.67
2023-05-06T11:58:34.389Z,37.09
2023-05-06T12:01:02.335Z,35.63
2023-05-06T12:03:31.716Z,34.53
2023-05-06T12:05:59.473Z,35.47
2023-05-06T12:08:36.205Z,35.59
2023-05-06T12:11:05.370Z,36.18
2023-05-06T12:13:32.411Z,36.59
2023-05-06T12:15:59.958Z,36.80
2023-05-06T12:18:27.571Z,35.78
2023-05-06T12:21:00.959Z,36.29
2023-05-06T12:23:27.412Z,36.77
2023-05-06T12:26:02.795Z,36.64
2023-05-06T12:28:30.806Z,36.19
2023-05-06T12:30:57.372Z,34.97
2023-05-06T12:33:24.155Z,35.51
2023-05-06T12:35:54.780Z,36.03
2023-05-06T12:38:21.461Z,35.62
2023-05-06T12:40:54.937Z,35.89
2023-05-06T12:43:30.574Z,36.80
2023-05-06T12:46:05.094Z,37.11
2023-05-06T12:48:31.660Z,36.43
2023-05-06T12:50:58.130Z,36.41
2023-05-06T12:53:33.635Z,35.52
2023-05-06T12:56:00.186Z,35.22
2023-05-06T12:58:26.771Z,35.19
2023-05-06T13:00:53.195Z,35.87
2023-05-06T13:03:19.697Z,36.32
2023-05-06T13:05:48.217Z,36.67
2023-05-06T13:08:14.612Z,37.14
2023-05-06T13:10:40.992Z,37.55
2023-05-06T13:13:07.851Z,37.90
2023-05-06T13:15:35.632Z,38.13
2023-05-06T13:18:02.172Z,38.06
2023-05-06T13:20:28.692Z,37.94
2023-05-06T13:22:55.407Z,37.75
2023-05-06T13:25:22.336Z,37.90
2023-05-06T13:27:49.180Z,38.14
2023-05-06T13:30:15.797Z,38.11
2023-05-06T13:32:42.802Z,38.14
2023-05-06T13:35:09.895Z,37.74
2023-05-06T13:37:36.486Z,37.95
2023-05-06T13:40:03.480Z,37.99
2023-05-06T13:42:29.923Z,37.71
2023-05-06T13:44:57.475Z,38.04
2023-05-06T13:47:24.308Z,38.26
2023-05-06T13:49:51.136Z,38.49
2023-05-06T13:52:17.531Z,38.15
2023-05-06T13:54:44.882Z,38.17
2023-05-06T13:57:11.272Z,38.53
2023-05-06T13:59:37.663Z,37.21
2023-05-06T14:02:08.782Z,36.54
2023-05-06T14:04:36.059Z,36.43
2023-05-06T14:07:02.532Z,35.83
2023-05-06T14:09:29.110Z,34.54
2023-05-06T14:11:58.450Z,34.62
2023-05-06T14:14:26.839Z,34.40
2023-05-06T14:16:55.125Z,34.90
2023-05-06T14:19:25.566Z,35.17
2023-05-06T14:21:52.074Z,35.48
2023-05-06T14:24:18.591Z,35.69
2023-05-06T14:26:46.172Z,36.21
2023-05-06T14:29:13.695Z,36.68
2023-05-06T14:31:40.298Z,35.31
2023-05-06T14:34:06.862Z,35.56
2023-05-06T14:36:33.474Z,35.65
2023-05-06T14:39:00.083Z,35.26
2023-05-06T14:41:26.667Z,35.61
2023-05-06T14:43:53.221Z,35.77
2023-05-06T14:46:19.848Z,36.08
2023-05-06T14:48:46.605Z,36.31
2023-05-06T14:51:13.155Z,35.40
2023-05-06T14:53:43.529Z,36.05
2023-05-06T14:56:10.918Z,36.53
2023-05-06T14:58:39.133Z,36.53
2023-05-06T15:01:05.871Z,36.51
2023-05-06T15:03:32.476Z,36.48
2023-05-06T15:05:58.935Z,36.53
2023-05-06T15:08:26.340Z,36.74
2023-05-06T15:10:53.296Z,37.55
2023-05-06T15:13:19.698Z,36.71
2023-05-06T15:15:46.138Z,36.45
2023-05-06T15:18:13.351Z,36.59
2023-05-06T15:20:40.092Z,36.44
2023-05-06T15:23:09.321Z,37.31
2023-05-06T15:25:36.659Z,38.12
2023-05-06T15:28:04.911Z,38.20
2023-05-06T15:30:36.530Z,38.14
2023-05-06T15:33:03.053Z,38.19
2023-05-06T15:35:31.300Z,38.51
2023-05-06T15:37:58.938Z,38.32
2023-05-06T15:40:26.303Z,38.48
2023-05-06T15:42:52.751Z,38.73
2023-05-06T15:45:19.658Z,38.49
2023-05-06T15:47:47.984Z,38.67
2023-05-06T15:50:29.030Z,38.36
2023-05-06T15:52:59.617Z,38.53
2023-05-06T15:55:26.688Z,38.54
2023-05-06T15:57:54.543Z,38.74
2023-05-06T16:00:22.187Z,38.63
2023-05-06T16:02:48.788Z,38.63
2023-05-06T16:05:15.874Z,38.51
2023-05-06T16:07:42.524Z,38.44
2023-05-06T16:10:11.769Z,38.59
2023-05-06T16:12:38.827Z,38.60
2023-05-06T16:15:05.753Z,38.74
2023-05-06T16:17:37.459Z,38.36
2023-05-06T16:20:05.485Z,37.97
2023-05-06T16:22:34.308Z,38.41
2023-05-06T16:25:00.893Z,38.27
2023-05-06T16:27:29.919Z,38.06
2023-05-06T16:29:56.389Z,38.42
2023-05-06T16:32:23.436Z,38.33
2023-05-06T16:34:50.116Z,38.77
2023-05-06T16:37:16.697Z,38.58
2023-05-06T16:39:43.171Z,38.69
2023-05-06T16:42:09.761Z,38.59
2023-05-06T16:44:36.371Z,37.98
2023-05-06T16:47:02.933Z,38.27
2023-05-06T16:49:31.367Z,38.28
2023-05-06T16:52:00.672Z,39.19
2023-05-06T16:54:28.301Z,39.38
2023-05-06T16:56:55.047Z,39.79
2023-05-06T16:59:22.425Z,40.10
2023-05-06T17:01:49.625Z,40.35
2023-05-06T17:04:18.837Z,40.29
2023-05-06T17:06:45.673Z,40.73
2023-05-06T17:09:14.317Z,41.21
2023-05-06T17:11:40.778Z,41.75
2023-05-06T17:14:07.199Z,42.10
2023-05-06T17:16:33.691Z,41.82
2023-05-06T17:19:00.249Z,42.54
2023-05-06T17:21:27.761Z,42.30
2023-05-06T17:23:54.478Z,42.86
2023-05-06T17:26:21.890Z,43.91
2023-05-06T17:28:48.566Z,44.70
2023-05-06T17:31:16.036Z,44.67
2023-05-06T17:33:42.889Z,44.65
2023-05-06T17:36:09.349Z,45.47
2023-05-06T17:38:35.761Z,46.13
2023-05-06T17:41:02.120Z,45.87
2023-05-06T17:43:28.841Z,47.41
2023-05-06T17:45:55.893Z,48.81
2023-05-06T17:48:22.686Z,50.58
2023-05-06T17:50:49.097Z,55.20
2023-05-06T17:53:15.559Z,58.30
2023-05-06T17:55:42.038Z,59.74
2023-05-06T17:58:08.456Z,62.54
2023-05-06T18:00:34.946Z,62.36
2023-05-06T18:03:01.577Z,62.77
2023-05-06T18:05:28.153Z,63.46
2023-05-06T18:07:54.608Z,64.45
2023-05-06T18:10:21.241Z,67.82
2023-05-06T18:12:50.636Z,69.55
2023-05-06T18:15:17.188Z,70.64
2023-05-06T18:17:43.840Z,71.44
2023-05-06T18:20:10.890Z,71.64
2023-05-06T18:22:38.994Z,71.60
2023-05-06T18:25:06.369Z,72.56
2023-05-06T18:27:32.780Z,73.60
2023-05-06T18:29:59.409Z,74.84
2023-05-06T18:32:26.106Z,76.16
2023-05-06T18:34:52.591Z,77.54
2023-05-06T18:37:18.919Z,78.12
2023-05-06T18:39:45.634Z,79.26
2023-05-06T18:42:12.246Z,81.16
2023-05-06T18:44:38.711Z,82.69
2023-05-06T18:47:05.525Z,83.56
2023-05-06T18:49:32.121Z,84.41
2023-05-06T18:51:58.663Z,85.03
2023-05-06T18:54:25.177Z,85.86
2023-05-06T18:56:51.885Z,85.72
2023-05-06T18:59:20.067Z,85.92
2023-05-06T19:01:46.884Z,85.89
2023-05-06T19:04:13.654Z,84.61
2023-05-06T19:06:40.213Z,84.88
2023-05-06T19:09:08.035Z,86.32
2023-05-06T19:11:34.915Z,86.50
2023-05-06T19:14:01.530Z,86.08
2023-05-06T19:16:28.359Z,86.78
2023-05-06T19:18:54.909Z,85.76
2023-05-06T19:21:21.763Z,87.43
2023-05-06T19:23:48.274Z,87.71
2023-05-06T19:26:17.424Z,87.95
2023-05-06T19:28:44.055Z,88.42
2023-05-06T19:31:10.684Z,88.81
2023-05-06T19:33:37.851Z,87.94
2023-05-06T19:36:07.791Z,88.07
2023-05-06T19:38:34.657Z,88.02
2023-05-06T19:41:01.606Z,88.06
2023-05-06T19:43:28.062Z,88.22
2023-05-06T19:45:54.512Z,88.20
2023-05-06T19:48:22.178Z,88.34
2023-05-06T19:50:48.751Z,88.06
2023-05-06T19:53:15.348Z,88.41
2023-05-06T19:55:41.790Z,87.87
2023-05-06T19:58:08.274Z,88.46
2023-05-06T20:00:34.829Z,88.74
2023-05-06T20:03:10.475Z,89.14
2023-05-06T20:05:36.904Z,89.37
2023-05-06T20:08:03.532Z,89.02
2023-05-06T20:10:30.184Z,88.87
2023-05-06T20:12:57.766Z,88.76
2023-05-06T20:15:24.968Z,89.09
2023-05-06T20:17:51.497Z,89.19
2023-05-06T20:20:19.101Z,89.33
2023-05-06T20:22:45.582Z,89.32
2023-05-06T20:25:16.135Z,89.42
2023-05-06T20:27:43.470Z,89.40
2023-05-06T20:30:10.545Z,89.80
2023-05-06T20:32:38.153Z,90.52
2023-05-06T20:35:05.377Z,90.71
2023-05-06T20:37:33.893Z,90.66
2023-05-06T20:40:00.647Z,91.08
2023-05-06T20:42:27.706Z,91.58
2023-05-06T20:44:54.281Z,91.47
2023-05-06T20:47:20.863Z,91.83
2023-05-06T20:49:47.479Z,91.92
2023-05-06T20:52:17.434Z,92.57
2023-05-06T20:54:45.197Z,92.99
2023-05-06T20:57:13.876Z,92.98
2023-05-06T20:59:40.268Z,93.04
2023-05-06T21:02:06.767Z,93.01
2023-05-06T21:04:33.465Z,93.14
2023-05-06T21:06:59.966Z,93.00
2023-05-06T21:09:29.818Z,93.13
2023-05-06T21:12:00.870Z,93.17
2023-05-06T21:14:27.407Z,93.18
2023-05-06T21:16:53.953Z,93.47
2023-05-06T21:19:20.617Z,93.39
2023-05-06T21:21:48.675Z,93.70
2023-05-06T21:24:15.405Z,93.94
2023-05-06T21:26:41.868Z,94.14
2023-05-06T21:29:08.286Z,94.14
2023-05-06T21:31:34.969Z,93.96
2023-05-06T21:34:01.542Z,93.62
2023-05-06T21:36:27.970Z,94.00
2023-05-06T21:39:11.966Z,94.25
2023-05-06T21:41:39.305Z,94.28
2023-05-06T21:44:08.265Z,94.27
2023-05-06T21:46:34.980Z,94.38
2023-05-06T21:49:04.275Z,94.50
2023-05-06T21:51:36.009Z,94.35
2023-05-06T21:54:07.238Z,94.17
2023-05-06T21:56:33.822Z,94.34
2023-05-06T21:59:00.472Z,94.49
2023-05-06T22:01:27.020Z,94.38
2023-05-06T22:03:53.959Z,94.73
2023-05-06T22:06:20.967Z,94.51
2023-05-06T22:08:47.638Z,94.36
2023-05-06T22:11:14.214Z,94.80
2023-05-06T22:13:40.718Z,94.70
2023-05-06T22:16:07.838Z,94.76
2023-05-06T22:18:36.034Z,94.31
2023-05-06T22:21:03.202Z,94.57
2023-05-06T22:23:29.759Z,94.87
2023-05-06T22:25:57.430Z,94.93
2023-05-06T22:28:24.851Z,94.94
2023-05-06T22:30:51.361Z,95.00
2023-05-06T22:33:17.734Z,94.80
2023-05-06T22:35:47.316Z,94.91
2023-05-06T22:38:16.695Z,94.64
2023-05-06T22:40:43.039Z,94.90
2023-05-06T22:43:09.466Z,94.48
2023-05-06T22:45:36.160Z,94.24
2023-05-06T22:48:02.616Z,94.49
2023-05-06T22:50:29.354Z,94.72
2023-05-06T22:52:55.835Z,94.83
2023-05-06T22:55:22.660Z,95.02
2023-05-06T22:57:53.816Z,95.18
2023-05-06T23:00:20.437Z,94.73
2023-05-06T23:02:47.260Z,94.54
2023-05-06T23:05:14.203Z,94.69
2023-05-06T23:07:41.128Z,94.62
2023-05-06T23:10:09.241Z,94.65
2023-05-06T23:12:36.010Z,95.20
2023-05-06T23:15:02.782Z,94.91
2023-05-06T23:17:29.262Z,94.48
2023-05-06T23:19:55.815Z,94.40
2023-05-06T23:22:22.385Z,94.29
2023-05-06T23:24:49.853Z,94.58
2023-05-06T23:27:16.601Z,94.76
2023-05-06T23:29:43.208Z,94.28
2023-05-06T23:32:09.712Z,94.38
2023-05-06T23:34:36.143Z,94.35
2023-05-06T23:37:02.517Z,94.15
2023-05-06T23:39:28.929Z,94.68
2023-05-06T23:41:55.366Z,94.38
2023-05-06T23:44:22.527Z,94.50
2023-05-06T23:46:48.975Z,94.56
2023-05-06T23:49:15.695Z,94.76
2023-05-06T23:51:42.093Z,94.69
2023-05-06T23:54:08.486Z,94.71
2023-05-06T23:56:34.957Z,94.59
2023-05-06T23:59:01.506Z,94.93
